sensor_id;sensor_type;location;lat;lon;timestamp;pressure;altitude;pressure_sealevel;temperature;humidity
14232;BME280;7200;52.194;9.900;2023-02-28T00:00:32;101627.06;;;2.38;100.00
14232;BME280;7200;52.194;9.900;2023-02-28T00:02:59;101632.47;;;2.49;100.00
14232;BME280;7200;52.194;9.900;2023-02-28T00:05:25;101645.59;;;2.55;100.00
14232;BME280;7200;52.194;9.900;2023-02-28T00:07:52;101617.63;;;2.45;100.00
14232;BME280;7200;52.194;9.900;2023-02-28T00:10:19;101594.88;;;2.33;100.00
14232;BME280;7200;52.194;9.900;2023-02-28T00:12:50;101612.25;;;2.34;100.00
14232;BME280;7200;52.194;9.900;2023-02-28T00:15:16;101588.50;;;2.16;100.00
14232;BME280;7200;52.194;9.900;2023-02-28T00:17:42;101587.75;;;2.21;100.00
14232;BME280;7200;52.194;9.900;2023-02-28T00:20:08;101618.28;;;2.30;100.00
14232;BME280;7200;52.194;9.900;2023-02-28T00:22:36;101606.88;;;2.23;100.00
14232;BME280;7200;52.194;9.900;2023-02-28T00:25:02;101593.78;;;2.19;100.00
14232;BME280;7200;52.194;9.900;2023-02-28T00:27:27;101604.22;;;2.22;100.00
14232;BME280;7200;52.194;9.900;2023-02-28T00:29:52;101623.34;;;2.24;100.00
14232;BME280;7200;52.194;9.900;2023-02-28T00:32:19;101605.06;;;2.19;100.00
14232;BME280;7200;52.194;9.900;2023-02-28T00:34:44;101608.53;;;2.20;100.00
14232;BME280;7200;52.194;9.900;2023-02-28T00:37:10;101591.09;;;2.14;100.00
14232;BME280;7200;52.194;9.900;2023-02-28T00:39:37;101572.69;;;2.05;100.00
14232;BME280;7200;52.194;9.900;2023-02-28T00:42:03;101548.06;;;1.84;100.00
14232;BME280;7200;52.194;9.900;2023-02-28T00:44:30;101562.78;;;1.82;100.00
14232;BME280;7200;52.194;9.900;2023-02-28T00:46:56;101558.34;;;1.77;100.00
14232;BME280;7200;52.194;9.900;2023-02-28T00:49:22;101547.75;;;1.67;100.00
14232;BME280;7200;52.194;9.900;2023-02-28T00:51:47;101551.19;;;1.65;100.00
14232;BME280;7200;52.194;9.900;2023-02-28T00:54:13;101559.03;;;1.66;100.00
14232;BME280;7200;52.194;9.900;2023-02-28T00:56:38;101560.69;;;1.63;100.00
14232;BME280;7200;52.194;9.900;2023-02-28T00:59:03;101532.72;;;1.49;100.00
14232;BME280;7200;52.194;9.900;2023-02-28T01:01:29;101526.47;;;1.40;100.00
14232;BME280;7200;52.194;9.900;2023-02-28T01:03:54;101526.28;;;1.30;100.00
14232;BME280;7200;52.194;9.900;2023-02-28T01:06:19;101517.44;;;1.22;100.00
14232;BME280;7200;52.194;9.900;2023-02-28T01:08:44;101498.78;;;0.97;100.00
14232;BME280;7200;52.194;9.900;2023-02-28T01:11:12;101502.69;;;0.75;100.00
14232;BME280;7200;52.194;9.900;2023-02-28T01:13:38;101509.56;;;0.75;100.00
14232;BME280;7200;52.194;9.900;2023-02-28T01:16:03;101541.81;;;0.83;100.00
14232;BME280;7200;52.194;9.900;2023-02-28T01:18:29;101517.41;;;0.76;100.00
14232;BME280;7200;52.194;9.900;2023-02-28T01:20:55;101550.63;;;0.91;100.00
14232;BME280;7200;52.194;9.900;2023-02-28T01:23:22;101563.69;;;0.94;100.00
14232;BME280;7200;52.194;9.900;2023-02-28T01:25:49;101575.13;;;1.03;100.00
14232;BME280;7200;52.194;9.900;2023-02-28T01:28:14;101555.91;;;0.94;100.00
14232;BME280;7200;52.194;9.900;2023-02-28T01:30:40;101515.59;;;0.72;100.00
14232;BME280;7200;52.194;9.900;2023-02-28T01:33:05;101497.13;;;0.58;100.00
14232;BME280;7200;52.194;9.900;2023-02-28T01:35:34;101518.06;;;0.66;100.00
14232;BME280;7200;52.194;9.900;2023-02-28T01:38:01;101505.72;;;0.56;100.00
14232;BME280;7200;52.194;9.900;2023-02-28T01:40:26;101537.16;;;0.68;100.00
14232;BME280;7200;52.194;9.900;2023-02-28T01:42:51;101526.72;;;0.67;100.00
14232;BME280;7200;52.194;9.900;2023-02-28T01:45:29;101517.88;;;0.57;100.00
14232;BME280;7200;52.194;9.900;2023-02-28T01:48:01;101551.88;;;0.69;100.00
14232;BME280;7200;52.194;9.900;2023-02-28T01:50:30;101564.06;;;0.72;100.00
14232;BME280;7200;52.194;9.900;2023-02-28T01:53:00;101537.00;;;0.62;100.00
14232;BME280;7200;52.194;9.900;2023-02-28T01:55:28;101516.22;;;0.61;100.00
14232;BME280;7200;52.194;9.900;2023-02-28T01:57:56;101498.78;;;0.55;100.00
14232;BME280;7200;52.194;9.900;2023-02-28T02:00:24;101513.56;;;0.59;100.00
14232;BME280;7200;52.194;9.900;2023-02-28T02:02:54;101524.00;;;0.61;100.00
14232;BME280;7200;52.194;9.900;2023-02-28T02:05:27;101465.38;;;0.31;100.00
14232;BME280;7200;52.194;9.900;2023-02-28T02:08:01;101541.94;;;0.50;100.00
14232;BME280;7200;52.194;9.900;2023-02-28T02:10:32;101534.22;;;0.53;100.00
14232;BME280;7200;52.194;9.900;2023-02-28T02:18:50;101433.66;;;-0.30;100.00
14232;BME280;7200;52.194;9.900;2023-02-28T02:30:01;101509.88;;;-0.25;100.00
14232;BME280;7200;52.194;9.900;2023-02-28T02:35:31;101480.97;;;-0.41;100.00
14232;BME280;7200;52.194;9.900;2023-02-28T02:38:09;101488.75;;;-0.41;100.00
14232;BME280;7200;52.194;9.900;2023-02-28T02:41:02;101520.19;;;-0.28;100.00
14232;BME280;7200;52.194;9.900;2023-02-28T02:43:35;101480.16;;;-0.38;100.00
14232;BME280;7200;52.194;9.900;2023-02-28T02:46:06;101490.63;;;-0.35;100.00
14232;BME280;7200;52.194;9.900;2023-02-28T02:48:36;101475.78;;;-0.41;100.00
14232;BME280;7200;52.194;9.900;2023-02-28T02:51:09;101468.81;;;-0.42;100.00
14232;BME280;7200;52.194;9.900;2023-02-28T02:53:41;101460.91;;;-0.48;100.00
14232;BME280;7200;52.194;9.900;2023-02-28T02:56:09;101462.63;;;-0.48;100.00
14232;BME280;7200;52.194;9.900;2023-02-28T02:58:39;101478.38;;;-0.41;100.00
14232;BME280;7200;52.194;9.900;2023-02-28T03:01:09;101489.75;;;-0.35;100.00
14232;BME280;7200;52.194;9.900;2023-02-28T03:03:36;101486.25;;;-0.36;100.00
14232;BME280;7200;52.194;9.900;2023-02-28T03:06:02;101538.69;;;-0.14;100.00
14232;BME280;7200;52.194;9.900;2023-02-28T03:08:31;101554.75;;;0.07;100.00
14232;BME280;7200;52.194;9.900;2023-02-28T03:11:01;101538.25;;;0.04;100.00
14232;BME280;7200;52.194;9.900;2023-02-28T03:13:38;101469.19;;;-0.28;100.00
14232;BME280;7200;52.194;9.900;2023-02-28T03:19:34;101563.91;;;-0.09;100.00
14232;BME280;7200;52.194;9.900;2023-02-28T03:27:27;101561.97;;;-0.16;100.00
14232;BME280;7200;52.194;9.900;2023-02-28T03:30:15;101538.53;;;-0.19;100.00
14232;BME280;7200;52.194;9.900;2023-02-28T03:32:54;101500.94;;;-0.36;100.00
14232;BME280;7200;52.194;9.900;2023-02-28T03:35:24;101521.88;;;-0.29;100.00
14232;BME280;7200;52.194;9.900;2023-02-28T03:37:53;101513.13;;;-0.34;100.00
14232;BME280;7200;52.194;9.900;2023-02-28T03:40:25;101581.19;;;-0.08;100.00
14232;BME280;7200;52.194;9.900;2023-02-28T03:42:58;101557.75;;;-0.12;100.00
14232;BME280;7200;52.194;9.900;2023-02-28T03:45:33;101588.31;;;-0.01;100.00
14232;BME280;7200;52.194;9.900;2023-02-28T03:48:12;101566.59;;;-0.04;100.00
14232;BME280;7200;52.194;9.900;2023-02-28T03:50:44;101548.19;;;-0.13;100.00
14232;BME280;7200;52.194;9.900;2023-02-28T03:53:18;101506.25;;;-0.32;100.00
14232;BME280;7200;52.194;9.900;2023-02-28T03:56:00;101528.44;;;-0.43;100.00
14232;BME280;7200;52.194;9.900;2023-02-28T03:58:33;101512.75;;;-0.48;100.00
14232;BME280;7200;52.194;9.900;2023-02-28T04:01:14;101570.28;;;-0.29;100.00
14232;BME280;7200;52.194;9.900;2023-02-28T04:03:41;101508.34;;;-0.52;100.00
14232;BME280;7200;52.194;9.900;2023-02-28T04:06:14;101546.59;;;-0.42;100.00
14232;BME280;7200;52.194;9.900;2023-02-28T04:08:40;101527.47;;;-0.47;100.00
14232;BME280;7200;52.194;9.900;2023-02-28T04:11:20;101550.88;;;-0.44;100.00
14232;BME280;7200;52.194;9.900;2023-02-28T04:13:46;101465.78;;;-0.93;100.00
14232;BME280;7200;52.194;9.900;2023-02-28T04:16:11;101514.38;;;-0.85;100.00
14232;BME280;7200;52.194;9.900;2023-02-28T04:18:38;101511.47;;;-0.95;100.00
14232;BME280;7200;52.194;9.900;2023-02-28T04:21:04;101533.34;;;-0.86;100.00
14232;BME280;7200;52.194;9.900;2023-02-28T04:23:30;101553.25;;;-0.85;100.00
14232;BME280;7200;52.194;9.900;2023-02-28T04:25:56;101553.94;;;-0.90;100.00
14232;BME280;7200;52.194;9.900;2023-02-28T04:28:21;101597.66;;;-0.71;100.00
14232;BME280;7200;52.194;9.900;2023-02-28T04:30:46;101580.22;;;-0.76;100.00
14232;BME280;7200;52.194;9.900;2023-02-28T04:33:12;101603.88;;;-0.64;100.00
14232;BME280;7200;52.194;9.900;2023-02-28T04:35:37;101583.84;;;-0.70;100.00
14232;BME280;7200;52.194;9.900;2023-02-28T04:38:02;101625.84;;;-0.51;100.00
14232;BME280;7200;52.194;9.900;2023-02-28T04:40:27;101619.19;;;-0.42;100.00
14232;BME280;7200;52.194;9.900;2023-02-28T04:42:53;101635.00;;;-0.32;100.00
14232;BME280;7200;52.194;9.900;2023-02-28T04:45:18;101650.91;;;-0.20;100.00
14232;BME280;7200;52.194;9.900;2023-02-28T04:47:43;101653.00;;;-0.07;100.00
14232;BME280;7200;52.194;9.900;2023-02-28T04:50:09;101659.06;;;-0.06;100.00
14232;BME280;7200;52.194;9.900;2023-02-28T04:52:34;101644.22;;;-0.12;100.00
14232;BME280;7200;52.194;9.900;2023-02-28T04:55:00;101667.81;;;-0.03;100.00
14232;BME280;7200;52.194;9.900;2023-02-28T04:57:25;101653.94;;;-0.05;100.00
14232;BME280;7200;52.194;9.900;2023-02-28T04:59:50;101640.72;;;-0.14;100.00
14232;BME280;7200;52.194;9.900;2023-02-28T05:02:15;101676.66;;;0.06;100.00
14232;BME280;7200;52.194;9.900;2023-02-28T05:04:41;101662.75;;;0.02;100.00
14232;BME280;7200;52.194;9.900;2023-02-28T05:07:06;101687.09;;;0.07;100.00
14232;BME280;7200;52.194;9.900;2023-02-28T05:09:31;101654.06;;;0.02;100.00
14232;BME280;7200;52.194;9.900;2023-02-28T05:11:58;101707.59;;;0.30;100.00
14232;BME280;7200;52.194;9.900;2023-02-28T05:14:23;101708.53;;;0.33;100.00
14232;BME280;7200;52.194;9.900;2023-02-28T05:16:48;101693.13;;;0.39;100.00
14232;BME280;7200;52.194;9.900;2023-02-28T05:19:14;101683.41;;;0.31;100.00
14232;BME280;7200;52.194;9.900;2023-02-28T05:21:41;101685.94;;;0.29;100.00
14232;BME280;7200;52.194;9.900;2023-02-28T05:24:13;101676.28;;;0.24;100.00
14232;BME280;7200;52.194;9.900;2023-02-28T05:26:40;101701.53;;;0.29;100.00
14232;BME280;7200;52.194;9.900;2023-02-28T05:29:06;101684.88;;;0.21;100.00
14232;BME280;7200;52.194;9.900;2023-02-28T05:31:31;101631.53;;;-0.01;100.00
14232;BME280;7200;52.194;9.900;2023-02-28T05:33:57;101653.06;;;-0.05;100.00
14232;BME280;7200;52.194;9.900;2023-02-28T05:36:23;101639.94;;;-0.10;100.00
14232;BME280;7200;52.194;9.900;2023-02-28T05:38:49;101610.81;;;-0.33;100.00
14232;BME280;7200;52.194;9.900;2023-02-28T05:41:16;101604.25;;;-0.52;100.00
14232;BME280;7200;52.194;9.900;2023-02-28T05:43:41;101637.34;;;-0.43;100.00
14232;BME280;7200;52.194;9.900;2023-02-28T05:46:09;101642.38;;;-0.48;100.00
14232;BME280;7200;52.194;9.900;2023-02-28T05:48:37;101617.78;;;-0.62;100.00
14232;BME280;7200;52.194;9.900;2023-02-28T05:51:03;101634.97;;;-0.66;100.00
14232;BME280;7200;52.194;9.900;2023-02-28T05:53:29;101652.19;;;-0.66;100.00
14232;BME280;7200;52.194;9.900;2023-02-28T05:55:55;101635.50;;;-0.76;100.00
14232;BME280;7200;52.194;9.900;2023-02-28T05:58:21;101652.03;;;-0.72;100.00
14232;BME280;7200;52.194;9.900;2023-02-28T06:00:46;101685.34;;;-0.56;100.00
14232;BME280;7200;52.194;9.900;2023-02-28T06:03:11;101636.22;;;-0.82;100.00
14232;BME280;7200;52.194;9.900;2023-02-28T06:05:37;101616.66;;;-1.01;100.00
14232;BME280;7200;52.194;9.900;2023-02-28T06:08:03;101658.50;;;-0.87;100.00
14232;BME280;7200;52.194;9.900;2023-02-28T06:10:30;101671.66;;;-0.81;100.00
14232;BME280;7200;52.194;9.900;2023-02-28T06:12:59;101679.50;;;-0.79;100.00
14232;BME280;7200;52.194;9.900;2023-02-28T06:15:25;101697.84;;;-0.71;100.00
14232;BME280;7200;52.194;9.900;2023-02-28T06:17:50;101726.06;;;-0.52;100.00
14232;BME280;7200;52.194;9.900;2023-02-28T06:20:16;101742.13;;;-0.35;100.00
14232;BME280;7200;52.194;9.900;2023-02-28T06:22:41;101662.50;;;-0.69;100.00
14232;BME280;7200;52.194;9.900;2023-02-28T06:25:06;101587.19;;;-1.33;100.00
14232;BME280;7200;52.194;9.900;2023-02-28T06:27:33;101605.97;;;-1.40;100.00
14232;BME280;7200;52.194;9.900;2023-02-28T06:29:58;101681.19;;;-1.08;100.00
14232;BME280;7200;52.194;9.900;2023-02-28T06:32:24;101673.41;;;-1.08;100.00
14232;BME280;7200;52.194;9.900;2023-02-28T06:34:49;101715.44;;;-0.90;100.00
14232;BME280;7200;52.194;9.900;2023-02-28T06:37:16;101747.13;;;-0.70;100.00
14232;BME280;7200;52.194;9.900;2023-02-28T06:39:41;101715.03;;;-0.75;100.00
14232;BME280;7200;52.194;9.900;2023-02-28T06:42:06;101706.34;;;-0.77;100.00
14232;BME280;7200;52.194;9.900;2023-02-28T06:44:32;101703.47;;;-0.86;100.00
14232;BME280;7200;52.194;9.900;2023-02-28T06:47:01;101746.31;;;-0.69;100.00
14232;BME280;7200;52.194;9.900;2023-02-28T06:49:34;101754.31;;;-0.61;100.00
14232;BME280;7200;52.194;9.900;2023-02-28T06:52:00;101737.66;;;-0.69;100.00
14232;BME280;7200;52.194;9.900;2023-02-28T06:54:25;101744.75;;;-0.64;100.00
14232;BME280;7200;52.194;9.900;2023-02-28T06:56:50;101707.66;;;-0.90;100.00
14232;BME280;7200;52.194;9.900;2023-02-28T06:59:16;101768.13;;;-0.62;100.00
14232;BME280;7200;52.194;9.900;2023-02-28T07:01:41;101725.09;;;-0.84;100.00
14232;BME280;7200;52.194;9.900;2023-02-28T07:04:07;101775.91;;;-0.61;100.00
14232;BME280;7200;52.194;9.900;2023-02-28T07:06:32;101790.31;;;-0.42;100.00
14232;BME280;7200;52.194;9.900;2023-02-28T07:08:58;101802.69;;;-0.33;100.00
14232;BME280;7200;52.194;9.900;2023-02-28T07:11:27;101822.22;;;-0.15;100.00
14232;BME280;7200;52.194;9.900;2023-02-28T07:13:54;101808.81;;;-0.01;100.00
14232;BME280;7200;52.194;9.900;2023-02-28T07:16:20;101785.31;;;-0.07;100.00
14232;BME280;7200;52.194;9.900;2023-02-28T07:18:46;101763.38;;;-0.18;100.00
14232;BME280;7200;52.194;9.900;2023-02-28T07:21:12;101801.78;;;-0.05;100.00
14232;BME280;7200;52.194;9.900;2023-02-28T07:23:38;101799.34;;;0.00;100.00
14232;BME280;7200;52.194;9.900;2023-02-28T07:26:07;101759.00;;;-0.19;100.00
14232;BME280;7200;52.194;9.900;2023-02-28T07:28:36;101819.78;;;0.19;100.00
14232;BME280;7200;52.194;9.900;2023-02-28T07:31:05;101832.22;;;0.31;100.00
14232;BME280;7200;52.194;9.900;2023-02-28T07:33:32;101844.91;;;0.52;100.00
14232;BME280;7200;52.194;9.900;2023-02-28T07:36:02;101862.13;;;0.81;100.00
14232;BME280;7200;52.194;9.900;2023-02-28T07:38:28;101854.78;;;0.97;100.00
14232;BME280;7200;52.194;9.900;2023-02-28T07:40:53;101835.94;;;1.06;100.00
14232;BME280;7200;52.194;9.900;2023-02-28T07:43:19;101802.56;;;0.88;100.00
14232;BME280;7200;52.194;9.900;2023-02-28T07:45:44;101817.63;;;1.02;100.00
14232;BME280;7200;52.194;9.900;2023-02-28T07:48:09;101789.81;;;0.97;100.00
14232;BME280;7200;52.194;9.900;2023-02-28T07:50:35;101799.47;;;1.03;100.00
14232;BME280;7200;52.194;9.900;2023-02-28T07:53:00;101760.19;;;0.89;100.00
14232;BME280;7200;52.194;9.900;2023-02-28T07:55:25;101800.53;;;1.10;100.00
14232;BME280;7200;52.194;9.900;2023-02-28T07:57:51;101808.66;;;1.24;100.00
14232;BME280;7200;52.194;9.900;2023-02-28T08:00:16;101823.69;;;1.37;100.00
14232;BME280;7200;52.194;9.900;2023-02-28T08:02:42;101824.81;;;1.48;100.00
14232;BME280;7200;52.194;9.900;2023-02-28T08:05:08;101824.25;;;1.60;100.00
14232;BME280;7200;52.194;9.900;2023-02-28T08:07:33;101840.25;;;1.79;100.00
14232;BME280;7200;52.194;9.900;2023-02-28T08:09:59;101845.81;;;1.95;100.00
14232;BME280;7200;52.194;9.900;2023-02-28T08:12:24;101833.03;;;2.06;100.00
14232;BME280;7200;52.194;9.900;2023-02-28T08:14:50;101807.88;;;2.07;100.00
14232;BME280;7200;52.194;9.900;2023-02-28T08:17:15;101780.94;;;2.05;100.00
14232;BME280;7200;52.194;9.900;2023-02-28T08:19:41;101804.81;;;2.26;100.00
14232;BME280;7200;52.194;9.900;2023-02-28T08:22:06;101797.19;;;2.37;100.00
14232;BME280;7200;52.194;9.900;2023-02-28T08:24:31;101783.41;;;2.43;100.00
14232;BME280;7200;52.194;9.900;2023-02-28T08:26:57;101789.69;;;2.54;100.00
14232;BME280;7200;52.194;9.900;2023-02-28T08:29:22;101772.50;;;2.62;100.00
14232;BME280;7200;52.194;9.900;2023-02-28T08:31:47;101756.81;;;2.59;100.00
14232;BME280;7200;52.194;9.900;2023-02-28T08:34:15;101774.94;;;2.53;100.00
14232;BME280;7200;52.194;9.900;2023-02-28T08:36:40;101780.03;;;2.47;100.00
14232;BME280;7200;52.194;9.900;2023-02-28T08:39:08;101813.50;;;2.72;100.00
14232;BME280;7200;52.194;9.900;2023-02-28T08:41:34;101777.69;;;2.61;100.00
14232;BME280;7200;52.194;9.900;2023-02-28T08:43:59;101784.63;;;2.62;100.00
14232;BME280;7200;52.194;9.900;2023-02-28T08:46:25;101764.56;;;2.56;100.00
14232;BME280;7200;52.194;9.900;2023-02-28T08:48:52;101756.69;;;2.53;100.00
14232;BME280;7200;52.194;9.900;2023-02-28T08:51:19;101789.97;;;2.68;100.00
14232;BME280;7200;52.194;9.900;2023-02-28T08:53:51;101787.53;;;2.79;100.00
14232;BME280;7200;52.194;9.900;2023-02-28T08:56:16;101746.53;;;2.68;100.00
14232;BME280;7200;52.194;9.900;2023-02-28T08:58:43;101762.34;;;2.78;100.00
14232;BME280;7200;52.194;9.900;2023-02-28T09:01:19;101779.00;;;2.87;100.00
14232;BME280;7200;52.194;9.900;2023-02-28T09:03:46;101794.97;;;3.06;100.00
14232;BME280;7200;52.194;9.900;2023-02-28T09:06:12;101765.31;;;3.01;100.00
14232;BME280;7200;52.194;9.900;2023-02-28T09:08:38;101769.69;;;3.02;100.00
14232;BME280;7200;52.194;9.900;2023-02-28T09:11:04;101769.72;;;3.05;100.00
14232;BME280;7200;52.194;9.900;2023-02-28T09:13:30;101743.59;;;3.00;100.00
14232;BME280;7200;52.194;9.900;2023-02-28T09:15:58;101796.97;;;3.24;100.00
14232;BME280;7200;52.194;9.900;2023-02-28T09:18:24;101778.84;;;3.31;100.00
14232;BME280;7200;52.194;9.900;2023-02-28T09:20:49;101803.53;;;3.55;100.00
14232;BME280;7200;52.194;9.900;2023-02-28T09:23:15;101766.84;;;3.43;100.00
14232;BME280;7200;52.194;9.900;2023-02-28T09:25:49;101790.50;;;3.55;100.00
14232;BME280;7200;52.194;9.900;2023-02-28T09:28:15;101732.66;;;3.24;100.00
14232;BME280;7200;52.194;9.900;2023-02-28T09:30:41;101716.78;;;3.07;100.00
14232;BME280;7200;52.194;9.900;2023-02-28T09:33:07;101733.22;;;3.05;100.00
14232;BME280;7200;52.194;9.900;2023-02-28T09:35:32;101763.72;;;3.10;100.00
14232;BME280;7200;52.194;9.900;2023-02-28T09:37:58;101764.63;;;3.11;100.00
14232;BME280;7200;52.194;9.900;2023-02-28T09:40:24;101772.44;;;3.12;100.00
14232;BME280;7200;52.194;9.900;2023-02-28T09:42:57;101823.31;;;3.41;100.00
14232;BME280;7200;52.194;9.900;2023-02-28T09:45:31;101763.97;;;3.24;100.00
14232;BME280;7200;52.194;9.900;2023-02-28T09:48:02;101763.97;;;3.24;100.00
14232;BME280;7200;52.194;9.900;2023-02-28T09:50:36;101769.28;;;3.32;100.00
14232;BME280;7200;52.194;9.900;2023-02-28T09:53:19;101822.72;;;3.59;100.00
14232;BME280;7200;52.194;9.900;2023-02-28T09:55:50;101819.38;;;3.67;100.00
14232;BME280;7200;52.194;9.900;2023-02-28T09:58:26;101807.38;;;3.79;100.00
14232;BME280;7200;52.194;9.900;2023-02-28T10:01:04;101785.72;;;3.89;100.00
14232;BME280;7200;52.194;9.900;2023-02-28T10:03:36;101719.53;;;3.84;100.00
14232;BME280;7200;52.194;9.900;2023-02-28T10:06:13;101759.72;;;3.98;100.00
14232;BME280;7200;52.194;9.900;2023-02-28T10:08:50;101739.91;;;4.13;100.00
14232;BME280;7200;52.194;9.900;2023-02-28T10:11:17;101715.63;;;4.27;100.00
14232;BME280;7200;52.194;9.900;2023-02-28T10:13:51;101704.22;;;4.16;100.00
14232;BME280;7200;52.194;9.900;2023-02-28T10:18:50;101724.31;;;4.23;100.00
14232;BME280;7200;52.194;9.900;2023-02-28T10:21:23;101736.59;;;4.31;100.00
14232;BME280;7200;52.194;9.900;2023-02-28T10:23:53;101737.63;;;4.46;100.00
14232;BME280;7200;52.194;9.900;2023-02-28T10:26:26;101737.53;;;4.37;100.00
14232;BME280;7200;52.194;9.900;2023-02-28T10:28:53;101707.84;;;4.31;100.00
14232;BME280;7200;52.194;9.900;2023-02-28T10:31:19;101742.97;;;4.60;100.00
14232;BME280;7200;52.194;9.900;2023-02-28T10:33:45;101735.25;;;4.71;100.00
14232;BME280;7200;52.194;9.900;2023-02-28T10:36:20;101730.13;;;4.85;100.00
14232;BME280;7200;52.194;9.900;2023-02-28T10:38:47;101711.00;;;4.95;100.00
14232;BME280;7200;52.194;9.900;2023-02-28T10:41:15;101690.91;;;4.85;100.00
14232;BME280;7200;52.194;9.900;2023-02-28T10:43:43;101735.50;;;5.06;100.00
14232;BME280;7200;52.194;9.900;2023-02-28T10:48:40;101708.44;;;5.00;100.00
14232;BME280;7200;52.194;9.900;2023-02-28T10:51:16;101721.44;;;4.91;100.00
14232;BME280;7200;52.194;9.900;2023-02-28T10:58:53;101774.13;;;5.46;100.00
14232;BME280;7200;52.194;9.900;2023-02-28T11:01:23;101736.56;;;5.35;100.00
14232;BME280;7200;52.194;9.900;2023-02-28T11:03:50;101757.56;;;5.44;100.00
14232;BME280;7200;52.194;9.900;2023-02-28T11:06:19;101684.22;;;5.33;100.00
14232;BME280;7200;52.194;9.900;2023-02-28T11:08:47;101706.97;;;5.48;100.00
14232;BME280;7200;52.194;9.900;2023-02-28T11:11:13;101673.75;;;5.30;100.00
14232;BME280;7200;52.194;9.900;2023-02-28T11:13:39;101685.13;;;5.41;100.00
14232;BME280;7200;52.194;9.900;2023-02-28T11:16:06;101696.63;;;5.73;100.00
14232;BME280;7200;52.194;9.900;2023-02-28T11:18:46;101660.78;;;5.58;100.00
14232;BME280;7200;52.194;9.900;2023-02-28T11:21:18;101621.50;;;5.55;100.00
14232;BME280;7200;52.194;9.900;2023-02-28T11:23:45;101568.25;;;5.48;100.00
14232;BME280;7200;52.194;9.900;2023-02-28T11:26:10;101610.25;;;5.87;100.00
14232;BME280;7200;52.194;9.900;2023-02-28T11:28:39;101603.31;;;6.04;98.81
14232;BME280;7200;52.194;9.900;2023-02-28T11:33:47;101629.53;;;6.07;99.80
14232;BME280;7200;52.194;9.900;2023-02-28T11:36:14;101601.59;;;6.28;96.68
14232;BME280;7200;52.194;9.900;2023-02-28T11:38:41;101523.81;;;6.16;94.48
14232;BME280;7200;52.194;9.900;2023-02-28T11:44:03;101571.00;;;6.39;95.57
14232;BME280;7200;52.194;9.900;2023-02-28T11:46:52;101643.50;;;6.80;95.15
14232;BME280;7200;52.194;9.900;2023-02-28T11:52:33;101590.03;;;7.22;88.81
14232;BME280;7200;52.194;9.900;2023-02-28T11:55:07;101485.13;;;7.04;88.50
14232;BME280;7200;52.194;9.900;2023-02-28T11:58:05;101484.38;;;6.82;88.40
14232;BME280;7200;52.194;9.900;2023-02-28T12:03:32;101457.25;;;6.86;86.30
14232;BME280;7200;52.194;9.900;2023-02-28T12:08:49;101431.88;;;6.90;85.73
14232;BME280;7200;52.194;9.900;2023-02-28T12:11:41;101417.84;;;6.97;83.56
14232;BME280;7200;52.194;9.900;2023-02-28T12:14:21;101445.00;;;6.87;84.04
14232;BME280;7200;52.194;9.900;2023-02-28T12:25:52;101456.09;;;7.35;81.37
14232;BME280;7200;52.194;9.900;2023-02-28T12:28:23;101463.03;;;7.44;81.65
14232;BME280;7200;52.194;9.900;2023-02-28T12:30:58;101543.41;;;7.69;82.13
14232;BME280;7200;52.194;9.900;2023-02-28T12:33:31;101432.00;;;7.90;77.46
14232;BME280;7200;52.194;9.900;2023-02-28T12:36:01;101420.66;;;7.88;77.37
14232;BME280;7200;52.194;9.900;2023-02-28T12:38:36;101365.47;;;7.87;75.40
14232;BME280;7200;52.194;9.900;2023-02-28T12:41:05;101404.63;;;8.13;74.09
14232;BME280;7200;52.194;9.900;2023-02-28T12:43:45;101359.94;;;8.16;73.71
14232;BME280;7200;52.194;9.900;2023-02-28T12:46:22;101444.22;;;7.94;78.19
14232;BME280;7200;52.194;9.900;2023-02-28T12:48:58;101390.97;;;7.80;76.82
14232;BME280;7200;52.194;9.900;2023-02-28T12:51:26;101383.75;;;8.01;74.96
14232;BME280;7200;52.194;9.900;2023-02-28T12:59:38;101494.69;;;8.30;76.38
14232;BME280;7200;52.194;9.900;2023-02-28T13:08:08;101159.00;;;7.72;69.25
14232;BME280;7200;52.194;9.900;2023-02-28T13:10:44;101166.25;;;7.53;69.46
14232;BME280;7200;52.194;9.900;2023-02-28T13:13:16;101094.84;;;7.23;68.06
14232;BME280;7200;52.194;9.900;2023-02-28T13:16:17;101209.53;;;7.18;71.18
14232;BME280;7200;52.194;9.900;2023-02-28T13:18:46;101183.97;;;7.32;70.35
14232;BME280;7200;52.194;9.900;2023-02-28T13:21:28;101169.41;;;7.07;71.61
14232;BME280;7200;52.194;9.900;2023-02-28T13:47:42;101299.63;;;7.15;76.21
14232;BME280;7200;52.194;9.900;2023-02-28T13:58:27;101156.28;;;7.07;72.11
14232;BME280;7200;52.194;9.900;2023-02-28T14:01:14;101127.31;;;7.16;70.19
14232;BME280;7200;52.194;9.900;2023-02-28T14:11:57;101125.06;;;6.79;70.63
14232;BME280;7200;52.194;9.900;2023-02-28T14:17:13;101284.91;;;6.96;75.46
14232;BME280;7200;52.194;9.900;2023-02-28T14:19:39;101256.91;;;7.01;74.44
14232;BME280;7200;52.194;9.900;2023-02-28T14:27:58;101209.63;;;7.04;71.22
14232;BME280;7200;52.194;9.900;2023-02-28T14:36:06;101203.81;;;6.70;75.10
14232;BME280;7200;52.194;9.900;2023-02-28T14:38:37;101196.91;;;6.59;75.52
14232;BME280;7200;52.194;9.900;2023-02-28T14:41:15;101223.09;;;6.66;75.52
14232;BME280;7200;52.194;9.900;2023-02-28T14:44:15;101230.84;;;6.78;74.71
14232;BME280;7200;52.194;9.900;2023-02-28T14:46:42;101259.78;;;6.69;76.54
14232;BME280;7200;52.194;9.900;2023-02-28T14:52:22;101169.66;;;6.76;72.00
14232;BME280;7200;52.194;9.900;2023-02-28T14:54:53;101185.22;;;6.97;71.65
14232;BME280;7200;52.194;9.900;2023-02-28T14:57:40;101046.28;;;6.87;67.84
14232;BME280;7200;52.194;9.900;2023-02-28T15:00:21;101115.56;;;6.67;70.02
14232;BME280;7200;52.194;9.900;2023-02-28T15:02:47;101176.03;;;6.47;74.51
14232;BME280;7200;52.194;9.900;2023-02-28T15:07:38;101216.19;;;6.52;75.55
14232;BME280;7200;52.194;9.900;2023-02-28T15:10:24;101144.69;;;6.33;74.88
14232;BME280;7200;52.194;9.900;2023-02-28T15:12:55;101246.75;;;6.55;75.77
14232;BME280;7200;52.194;9.900;2023-02-28T15:15:23;101251.13;;;6.50;77.59
14232;BME280;7200;52.194;9.900;2023-02-28T15:17:54;101194.31;;;6.53;74.71